Accoville, WV

12:17 AM EDT on September 02, 2014 (GMT -0400)
Burl's Weather, 314 Shawnee Circle,Switzer Wv. 25647 | Change Station
CLOSE
Current Station
Personal Weather Station
Location: Rossmore, WV
Elevation: 722 ft
Nearby Weather Stations

Elev 722 ft 37.81 °N, 81.98 °W | Updated 1 second ago

Partly Cloudy
Partly Cloudy
73.9 °F
Feels Like 70 °F
N
0.0
Wind Variable Wind from SSE
Gusts 0.0 mph

Today
High -- | Low -- °F
--% Chance of Precip.
Yesterday
High -- | Low -- °F
Precip. -- in
6:58 AM 7:55 PM
Waxing Crescent, 47% visible
Pressure 30.04 in
Visibility 10.0 miles
Clouds Clear
Heat Index 70 °F
Dew Point 73 °F
Humidity 97%
Rainfall 0.00 in
Snow Depth Not available.
UV 0 out of 12
Pollen 9.00 out of 12
Air Quality Not available.
Flu Activity Not available.
METAR KBKW 020351Z AUTO 21007KT 10SM CLR 23/17 A3015 RMK AO2 SLP172 T02280172 TSNO

More Conditions Fewer Conditions

Pressure 30.04 in
Visibility 10.0 miles
Clouds Clear
Heat Index 70 °F
Dew Point 73 °F
Humidity 97%
Rainfall 0.00 in
Snow Depth Not available.
UV 0 out of 12
Pollen 9.00 out of 12
Air Quality Not available.
Flu Activity Not available.
METAR KBKW 020351Z AUTO 21007KT 10SM CLR 23/17 A3015 RMK AO2 SLP172 T02280172 TSNO

More Conditions Fewer Conditions

10-Day Weather Forecast

Almanac

Astronomy

Sep. 02, 2014 Rise Set
Actual Time 6:58 AM EDT 7:55 PM EDT
Civil Twilight 6:31 AM EDT 8:21 PM EDT
Nautical Twilight 5:59 AM EDT 8:53 PM EDT
Astronomical Twilight 5:26 AM EDT 9:26 PM EDT
Moon 2:33 PM EDT 12:04 AM EDT
Length of Visible Light 13h 50m
Length of Day
12h 56m
Tomorrow will be 2m 19s shorter.
Waxing Crescent, 47% of the Moon is Illuminated
Today
Waxing Crescent
Sep 2
First Quarter
Sep 8
Full
Sep 15
Last Quarter
Sep 24
New

Yesterday's Extremes

State Highs State Lows

Community

WunderPhotos

Upload Photos

1,749,560 photos uploaded!

WunderBlogs® & News

Nearby

Snow Depth

Station Depth Elevation
No new snow has been reported.

Earthquake Activity

City Distance Mag. Time & Date
No recent earthquake activity has been reported nearby.
Minimum magnitude displayed is 2.5.

Coastal Water Temperatures

Place Temperature
No Stations Reporting

Nearby Weather Stations